createdAt,value
2017-10-22T00:02:08.500Z,2.10
2017-10-22T00:04:34.650Z,2.33
2017-10-22T00:07:01.554Z,2.22
2017-10-22T00:09:27.696Z,2.20
2017-10-22T00:11:53.845Z,1.80
2017-10-22T00:14:19.973Z,2.12
2017-10-22T00:16:46.837Z,1.90
2017-10-22T00:19:13.692Z,2.20
2017-10-22T00:21:40.536Z,2.12
2017-10-22T00:24:08.133Z,2.30
2017-10-22T00:26:34.978Z,1.73
2017-10-22T00:29:01.091Z,2.17
2017-10-22T00:31:27.201Z,2.50
2017-10-22T00:33:53.327Z,1.95
2017-10-22T00:36:20.213Z,2.30
2017-10-22T00:38:46.328Z,2.30
2017-10-22T00:41:12.438Z,2.20
2017-10-22T00:43:38.591Z,2.12
2017-10-22T00:46:04.769Z,1.50
2017-10-22T00:48:30.942Z,1.92
2017-10-22T00:50:57.044Z,1.80
2017-10-22T00:53:23.173Z,1.87
2017-10-22T00:55:49.308Z,2.03
2017-10-22T00:58:15.452Z,2.03
2017-10-22T01:00:41.566Z,1.98
2017-10-22T01:03:08.428Z,1.87
2017-10-22T01:05:35.553Z,1.80
2017-10-22T01:08:01.923Z,2.00
2017-10-22T01:10:28.237Z,1.60
2017-10-22T01:12:54.581Z,1.60
2017-10-22T01:15:22.503Z,1.87
2017-10-22T01:17:48.933Z,1.30
2017-10-22T01:20:16.521Z,2.03
2017-10-22T01:22:42.849Z,1.95
2017-10-22T01:25:09.189Z,1.92
2017-10-22T01:27:36.259Z,2.17
2017-10-22T01:30:02.636Z,1.67
2017-10-22T01:32:30.271Z,2.17
2017-10-22T01:34:56.633Z,1.92
2017-10-22T01:37:22.973Z,2.00
2017-10-22T01:39:49.328Z,1.80
2017-10-22T01:42:18.032Z,1.77
2017-10-22T01:44:44.485Z,1.92
2017-10-22T01:47:10.936Z,1.73
2017-10-22T01:49:37.282Z,1.85
2017-10-22T01:52:03.679Z,1.95
2017-10-22T01:54:30.009Z,1.80
2017-10-22T01:56:56.340Z,2.10
2017-10-22T01:59:22.718Z,1.55
2017-10-22T02:01:49.866Z,1.50
2017-10-22T02:04:16.188Z,2.00
2017-10-22T02:06:44.757Z,2.00
2017-10-22T02:09:11.947Z,1.85
2017-10-22T02:11:38.310Z,1.77
2017-10-22T02:14:04.642Z,1.77
2017-10-22T02:16:31.721Z,1.98
2017-10-22T02:18:58.187Z,2.00
2017-10-22T02:21:24.516Z,2.10
2017-10-22T02:23:50.844Z,1.95
2017-10-22T02:26:17.167Z,2.47
2017-10-22T02:28:43.497Z,1.70
2017-10-22T02:31:10.466Z,2.10
2017-10-22T02:33:36.805Z,1.35
2017-10-22T02:36:03.232Z,1.62
2017-10-22T02:38:29.597Z,1.48
2017-10-22T02:40:58.920Z,1.67
2017-10-22T02:43:25.288Z,1.40
2017-10-22T02:45:51.635Z,1.98
2017-10-22T02:48:17.947Z,1.70
2017-10-22T02:50:44.254Z,1.83
2017-10-22T02:53:10.605Z,1.40
2017-10-22T02:55:36.974Z,1.70
2017-10-22T02:58:03.293Z,1.85
2017-10-22T03:00:30.468Z,2.55
2017-10-22T03:02:59.505Z,2.53
2017-10-22T03:05:25.840Z,1.85
2017-10-22T03:07:52.152Z,1.30
2017-10-22T03:10:19.329Z,1.23
2017-10-22T03:12:45.780Z,1.58
2017-10-22T03:15:12.148Z,2.50
2017-10-22T03:17:38.466Z,1.70
2017-10-22T03:20:04.790Z,1.35
2017-10-22T03:22:31.105Z,1.85
2017-10-22T03:24:57.409Z,1.62
2017-10-22T03:27:23.772Z,1.70
2017-10-22T03:29:50.824Z,1.60
2017-10-22T03:32:17.987Z,1.58
2017-10-22T03:34:44.327Z,1.60
2017-10-22T03:37:10.672Z,1.40
2017-10-22T03:39:36.957Z,1.60
2017-10-22T03:42:03.256Z,1.83
2017-10-22T03:44:29.569Z,1.42
2017-10-22T03:46:58.334Z,1.35
2017-10-22T03:49:24.460Z,1.85
2017-10-22T03:51:50.671Z,1.98
2017-10-22T03:54:16.989Z,1.45
2017-10-22T03:56:43.305Z,1.70
2017-10-22T03:59:09.611Z,1.62
2017-10-22T04:01:36.719Z,1.70
2017-10-22T04:04:03.035Z,1.30
2017-10-22T04:06:29.351Z,1.65
2017-10-22T04:08:56.502Z,2.15
2017-10-22T04:11:22.810Z,1.40
2017-10-22T04:13:49.127Z,1.60
2017-10-22T04:16:16.197Z,1.55
2017-10-22T04:18:44.261Z,2.35
2017-10-22T04:21:10.623Z,1.23
2017-10-22T04:23:36.958Z,1.85
2017-10-22T04:26:03.290Z,1.70
2017-10-22T04:28:32.367Z,1.87
2017-10-22T04:30:59.188Z,2.00
2017-10-22T04:33:26.544Z,1.95
2017-10-22T04:35:52.648Z,1.92
2017-10-22T04:38:22.556Z,2.42
2017-10-22T04:40:48.801Z,1.83
2017-10-22T04:43:14.910Z,2.15
2017-10-22T04:45:40.988Z,1.50
2017-10-22T04:48:07.098Z,1.95
2017-10-22T04:50:33.878Z,1.60
2017-10-22T04:52:59.991Z,2.20
2017-10-22T04:55:26.113Z,1.75
2017-10-22T04:57:52.945Z,1.65
2017-10-22T05:00:19.048Z,2.37
2017-10-22T05:02:45.878Z,2.78
2017-10-22T05:05:12.742Z,2.25
2017-10-22T05:07:39.575Z,2.67
2017-10-22T05:10:05.703Z,1.87
2017-10-22T05:12:31.816Z,1.90
2017-10-22T05:14:59.434Z,1.60
2017-10-22T05:17:25.525Z,1.58
2017-10-22T05:19:52.377Z,1.30
2017-10-22T05:22:18.503Z,1.65
2017-10-22T05:24:44.705Z,1.55
2017-10-22T05:27:10.813Z,1.48
2017-10-22T05:29:37.651Z,1.58
2017-10-22T05:32:03.833Z,1.02
2017-10-22T05:34:29.937Z,1.52
2017-10-22T05:36:58.234Z,1.35
2017-10-22T05:39:24.343Z,1.20
2017-10-22T05:41:50.433Z,1.33
2017-10-22T05:44:16.564Z,1.25
2017-10-22T05:46:42.666Z,1.40
2017-10-22T05:49:08.745Z,1.30
2017-10-22T05:51:34.851Z,1.42
2017-10-22T05:54:00.985Z,1.00
2017-10-22T05:56:27.830Z,1.37
2017-10-22T05:58:54.673Z,1.87
2017-10-22T06:01:20.762Z,1.70
2017-10-22T06:03:46.853Z,1.52
2017-10-22T06:06:12.962Z,1.33
2017-10-22T06:08:39.072Z,1.10
2017-10-22T06:11:05.945Z,1.20
2017-10-22T06:13:32.894Z,1.10
2017-10-22T06:15:59.748Z,1.20
2017-10-22T06:18:25.850Z,1.30
2017-10-22T06:20:51.949Z,1.20
2017-10-22T06:23:18.826Z,1.65
2017-10-22T06:25:45.708Z,1.30
2017-10-22T06:28:11.965Z,2.10
2017-10-22T06:30:38.102Z,1.30
2017-10-22T06:33:04.193Z,1.42
2017-10-22T06:35:30.310Z,1.50
2017-10-22T06:37:56.438Z,1.52
2017-10-22T06:40:22.697Z,1.70
2017-10-22T06:42:48.801Z,2.10
2017-10-22T06:45:14.933Z,2.12
2017-10-22T06:47:41.058Z,1.33
2017-10-22T06:50:07.186Z,1.70
2017-10-22T06:52:34.084Z,2.22
2017-10-22T06:55:00.205Z,2.20
2017-10-22T06:57:26.304Z,2.03
2017-10-22T06:59:53.210Z,2.30
2017-10-22T07:02:20.102Z,2.78
2017-10-22T07:04:46.964Z,2.42
2017-10-22T07:07:13.697Z,2.75
2017-10-22T07:09:39.792Z,2.60
2017-10-22T07:12:05.922Z,2.83
2017-10-22T07:14:32.214Z,2.92
2017-10-22T07:16:58.537Z,3.35
2017-10-22T07:19:25.706Z,3.30
2017-10-22T07:21:52.108Z,3.00
2017-10-22T07:24:18.520Z,3.30
2017-10-22T07:26:44.831Z,3.12
2017-10-22T07:29:11.265Z,3.97
2017-10-22T07:31:37.601Z,2.90
2017-10-22T07:34:03.910Z,3.42
2017-10-22T07:36:31.034Z,3.78
2017-10-22T07:38:57.376Z,3.33
2017-10-22T07:41:23.672Z,3.85
2017-10-22T07:43:50.001Z,3.03
2017-10-22T07:46:16.347Z,3.00
2017-10-22T07:48:43.405Z,3.53
2017-10-22T07:51:09.745Z,4.00
2017-10-22T07:53:36.201Z,2.80
2017-10-22T07:56:02.501Z,3.80
2017-10-22T07:58:28.808Z,3.30
2017-10-22T08:01:09.259Z,3.10
2017-10-22T08:03:36.824Z,3.80
2017-10-22T08:06:03.020Z,2.80
2017-10-22T08:08:29.120Z,3.28
2017-10-22T08:10:55.541Z,3.00
2017-10-22T08:13:21.659Z,3.22
2017-10-22T08:15:47.761Z,2.78
2017-10-22T08:18:13.852Z,3.10
2017-10-22T08:20:42.889Z,2.92
2017-10-22T08:23:08.984Z,2.85
2017-10-22T08:25:35.074Z,2.40
2017-10-22T08:28:01.207Z,2.05
2017-10-22T08:30:27.317Z,1.90
2017-10-22T08:32:53.426Z,1.77
2017-10-22T08:35:19.517Z,2.10
2017-10-22T08:37:46.073Z,2.03
2017-10-22T08:40:12.447Z,2.10
2017-10-22T08:42:38.561Z,2.45
2017-10-22T08:45:04.671Z,2.35
2017-10-22T08:47:30.858Z,3.20
2017-10-22T08:49:57.426Z,2.75
2017-10-22T08:52:23.807Z,2.10
2017-10-22T08:54:50.879Z,1.87
2017-10-22T08:57:17.192Z,2.70
2017-10-22T08:59:56.444Z,2.25
2017-10-22T09:02:22.560Z,2.92
2017-10-22T09:04:48.696Z,3.55
2017-10-22T09:07:14.858Z,2.30
2017-10-22T09:09:40.955Z,2.22
2017-10-22T09:12:07.104Z,2.37
2017-10-22T09:14:33.925Z,2.05
2017-10-22T09:17:02.267Z,2.08
2017-10-22T09:19:28.632Z,1.87
2017-10-22T09:21:55.493Z,1.87
2017-10-22T09:24:22.381Z,2.05
2017-10-22T09:26:48.497Z,1.70
2017-10-22T09:29:15.503Z,1.55
2017-10-22T09:31:41.645Z,1.70
2017-10-22T09:34:07.777Z,2.20
2017-10-22T09:36:34.690Z,1.90
2017-10-22T09:39:00.837Z,2.00
2017-10-22T09:41:33.014Z,1.85
2017-10-22T09:43:59.170Z,1.90
2017-10-22T09:46:26.026Z,1.77
2017-10-22T09:48:52.125Z,1.98
2017-10-22T09:51:20.463Z,2.40
2017-10-22T09:53:46.565Z,2.60
2017-10-22T09:56:13.482Z,2.55
2017-10-22T09:58:39.714Z,2.40
2017-10-22T10:01:05.822Z,2.53
2017-10-22T10:03:31.938Z,2.50
2017-10-22T10:05:58.071Z,3.20
2017-10-22T10:08:27.172Z,2.90
2017-10-22T10:10:53.293Z,2.65
2017-10-22T10:13:20.158Z,2.85
2017-10-22T10:15:47.022Z,2.53
2017-10-22T10:18:13.885Z,3.05
2017-10-22T10:20:40.763Z,3.72
2017-10-22T10:23:06.878Z,3.03
2017-10-22T10:25:35.128Z,2.60
2017-10-22T10:28:01.277Z,3.40
2017-10-22T10:30:28.689Z,3.42
2017-10-22T10:32:55.943Z,3.10
2017-10-22T10:35:22.159Z,2.87
2017-10-22T10:37:48.297Z,3.45
2017-10-22T10:40:19.480Z,2.95
2017-10-22T10:42:45.604Z,4.65
2017-10-22T10:45:13.709Z,3.37
2017-10-22T10:47:40.585Z,3.50
2017-10-22T10:50:06.706Z,3.42
2017-10-22T10:52:32.869Z,3.15
2017-10-22T10:54:58.998Z,3.87
2017-10-22T10:57:25.995Z,3.97
2017-10-22T10:59:52.155Z,4.37
2017-10-22T11:02:18.316Z,3.55
2017-10-22T11:04:44.425Z,4.25
2017-10-22T11:07:12.449Z,3.15
2017-10-22T11:09:38.637Z,3.00
2017-10-22T11:12:05.499Z,3.22
2017-10-22T11:14:32.433Z,2.70
2017-10-22T11:17:01.426Z,2.95
2017-10-22T11:19:36.147Z,2.70
2017-10-22T11:22:14.439Z,3.00
2017-10-22T11:24:42.609Z,2.50
2017-10-22T11:27:08.717Z,2.70
2017-10-22T11:29:35.579Z,2.40
2017-10-22T11:32:23.216Z,2.95
2017-10-22T11:34:53.134Z,2.90
2017-10-22T11:37:19.530Z,3.22
2017-10-22T11:39:45.840Z,2.65
2017-10-22T11:42:17.644Z,3.20
2017-10-22T11:44:48.105Z,3.00
2017-10-22T11:47:14.417Z,3.22
2017-10-22T11:49:40.736Z,2.40
2017-10-22T11:52:07.857Z,2.80
2017-10-22T11:54:34.203Z,2.60
2017-10-22T11:57:01.030Z,2.97
2017-10-22T11:59:27.342Z,3.08
2017-10-22T12:01:53.666Z,3.90
2017-10-22T12:04:19.981Z,3.03
2017-10-22T12:06:46.325Z,2.83
2017-10-22T12:09:12.752Z,2.90
2017-10-22T12:11:39.071Z,3.05
2017-10-22T12:14:05.398Z,2.70
2017-10-22T12:16:31.736Z,2.90
2017-10-22T12:18:58.799Z,3.00
2017-10-22T12:21:25.119Z,3.05
2017-10-22T12:23:51.425Z,2.90
2017-10-22T12:26:17.792Z,3.35
2017-10-22T12:28:44.117Z,3.47
2017-10-22T12:31:12.801Z,3.70
2017-10-22T12:33:39.849Z,3.10
2017-10-22T12:36:06.146Z,3.10
2017-10-22T12:38:32.606Z,3.40
2017-10-22T12:40:58.925Z,2.90
2017-10-22T12:43:27.031Z,4.25
2017-10-22T12:45:53.342Z,3.75
2017-10-22T12:48:19.681Z,4.20
2017-10-22T12:50:46.058Z,4.37
2017-10-22T12:53:12.397Z,4.45
2017-10-22T12:55:38.716Z,3.90
2017-10-22T12:58:05.025Z,4.03
2017-10-22T13:00:32.074Z,4.78
2017-10-22T13:02:58.386Z,5.32
2017-10-22T13:05:24.697Z,4.15
2017-10-22T13:07:51.753Z,3.45
2017-10-22T13:10:18.893Z,4.62
2017-10-22T13:12:45.224Z,4.03
2017-10-22T13:15:12.797Z,4.47
2017-10-22T13:17:39.110Z,3.45
2017-10-22T13:20:05.431Z,5.05
2017-10-22T13:22:31.741Z,3.55
2017-10-22T13:24:58.029Z,3.55
2017-10-22T13:27:24.335Z,3.40
2017-10-22T13:29:50.665Z,3.83
2017-10-22T13:32:16.965Z,3.10
2017-10-22T13:34:43.269Z,3.28
2017-10-22T13:37:09.566Z,3.47
2017-10-22T13:39:35.964Z,3.67
2017-10-22T13:42:02.314Z,4.20
2017-10-22T13:44:28.689Z,3.50
2017-10-22T13:46:55.074Z,4.20
2017-10-22T13:49:21.389Z,4.35
2017-10-22T13:51:47.758Z,4.40
2017-10-22T13:54:17.127Z,3.97
2017-10-22T13:56:44.914Z,3.53
2017-10-22T13:59:11.954Z,3.17
2017-10-22T14:01:38.265Z,3.22
2017-10-22T14:04:04.707Z,3.22
2017-10-22T14:06:31.010Z,3.00
2017-10-22T14:08:57.310Z,2.95
2017-10-22T14:11:24.349Z,2.87
2017-10-22T14:13:50.705Z,2.55
2017-10-22T14:16:17.767Z,2.80
2017-10-22T14:18:44.071Z,3.10
2017-10-22T14:21:10.377Z,2.72
2017-10-22T14:23:37.476Z,2.95
2017-10-22T14:26:03.789Z,2.95
2017-10-22T14:28:30.085Z,3.15
2017-10-22T14:30:56.543Z,3.65
2017-10-22T14:33:22.879Z,3.83
2017-10-22T14:35:49.199Z,3.35
2017-10-22T14:38:16.352Z,6.68
2017-10-22T14:40:42.678Z,4.90
2017-10-22T14:43:08.978Z,5.20
2017-10-22T14:45:35.353Z,4.18
2017-10-22T14:48:01.681Z,4.70
2017-10-22T14:50:28.046Z,6.05
2017-10-22T14:52:55.089Z,7.28
2017-10-22T14:55:22.167Z,5.20
2017-10-22T14:57:49.256Z,6.65
2017-10-22T15:00:18.309Z,5.68
2017-10-22T15:02:44.820Z,6.93
2017-10-22T15:05:12.059Z,4.25
2017-10-22T15:07:42.761Z,5.57
2017-10-22T15:10:09.114Z,7.75
2017-10-22T15:12:35.507Z,12.63
2017-10-22T15:15:01.853Z,7.45
2017-10-22T15:17:28.190Z,5.05
2017-10-22T15:19:55.245Z,4.85
2017-10-22T15:22:21.570Z,6.40
2017-10-22T15:24:47.946Z,5.25
2017-10-22T15:27:14.285Z,4.80
2017-10-22T15:29:41.528Z,4.25
2017-10-22T15:32:07.882Z,4.68
2017-10-22T15:34:34.491Z,4.35
2017-10-22T15:37:01.553Z,7.55
2017-10-22T15:39:28.662Z,4.78
2017-10-22T15:41:54.977Z,4.25
2017-10-22T15:44:21.298Z,10.50
2017-10-22T15:46:47.617Z,3.87
2017-10-22T15:49:13.938Z,4.70
2017-10-22T15:51:40.268Z,4.50
2017-10-22T15:54:06.592Z,5.68
2017-10-22T15:56:32.913Z,4.47
2017-10-22T15:59:02.123Z,4.93
2017-10-22T16:01:29.194Z,4.65
2017-10-22T16:03:56.486Z,4.22
2017-10-22T16:06:23.545Z,4.55
2017-10-22T16:08:49.885Z,4.43
2017-10-22T16:11:16.527Z,5.07
2017-10-22T16:13:43.289Z,5.22
2017-10-22T16:16:09.710Z,4.82
2017-10-22T16:18:36.026Z,5.45
2017-10-22T16:21:03.236Z,5.65
2017-10-22T16:23:30.450Z,6.00
2017-10-22T16:25:56.774Z,5.22
2017-10-22T16:28:23.143Z,8.00
2017-10-22T16:30:57.425Z,5.32
2017-10-22T16:33:23.761Z,7.90
2017-10-22T16:35:50.828Z,5.40
2017-10-22T16:38:17.144Z,5.43
2017-10-22T16:40:43.717Z,8.15
2017-10-22T16:43:10.816Z,11.20
2017-10-22T16:45:37.132Z,6.30
2017-10-22T16:48:04.168Z,5.03
2017-10-22T16:50:30.485Z,5.20
2017-10-22T16:53:19.686Z,5.57
2017-10-22T16:55:49.265Z,5.03
2017-10-22T16:58:15.576Z,4.80
2017-10-22T17:00:41.956Z,5.20
2017-10-22T17:03:08.302Z,5.28
2017-10-22T17:05:35.170Z,6.85
2017-10-22T17:08:02.236Z,6.40
2017-10-22T17:10:29.285Z,5.15
2017-10-22T17:12:55.985Z,6.18
2017-10-22T17:15:23.745Z,4.70
2017-10-22T17:17:50.806Z,5.22
2017-10-22T17:20:19.430Z,5.45
2017-10-22T17:22:46.554Z,4.62
2017-10-22T17:25:13.031Z,4.78
2017-10-22T17:27:39.353Z,5.32
2017-10-22T17:30:06.988Z,5.40
2017-10-22T17:32:34.043Z,4.30
2017-10-22T17:35:01.120Z,5.30
2017-10-22T17:37:28.193Z,5.60
2017-10-22T17:39:54.513Z,6.18
2017-10-22T17:42:20.856Z,5.95
2017-10-22T17:44:50.541Z,5.15
2017-10-22T17:47:16.834Z,5.40
2017-10-22T17:49:46.600Z,4.82
2017-10-22T17:52:13.681Z,4.95
2017-10-22T17:54:40.004Z,5.35
2017-10-22T17:57:07.092Z,5.12
2017-10-22T17:59:33.404Z,6.28
2017-10-22T18:01:59.841Z,6.57
2017-10-22T18:04:26.138Z,6.47
2017-10-22T18:19:52.756Z,5.65
2017-10-22T18:22:18.896Z,4.65
2017-10-22T18:24:45.149Z,4.20
2017-10-22T18:27:11.245Z,4.30
2017-10-22T18:29:38.097Z,3.90
2017-10-22T18:32:04.948Z,3.75
2017-10-22T18:34:31.054Z,4.53
2017-10-22T18:36:57.221Z,4.28
2017-10-22T18:39:23.373Z,5.12
2017-10-22T18:41:49.472Z,3.83
2017-10-22T18:44:15.742Z,7.28
2017-10-22T18:46:41.864Z,5.43
2017-10-22T18:49:07.986Z,3.87
2017-10-22T18:51:34.090Z,3.28
2017-10-22T18:54:00.189Z,3.00
2017-10-22T18:56:27.041Z,3.53
2017-10-22T18:58:53.885Z,4.00
2017-10-22T19:01:20.745Z,5.03
2017-10-22T19:03:46.855Z,3.75
2017-10-22T19:06:13.077Z,3.60
2017-10-22T19:08:40.110Z,3.92
2017-10-22T19:11:06.250Z,4.20
2017-10-22T19:13:32.389Z,3.60
2017-10-22T19:15:58.504Z,3.35
2017-10-22T19:18:24.633Z,3.58
2017-10-22T19:20:50.913Z,3.60
2017-10-22T19:23:17.004Z,3.50
2017-10-22T19:25:43.855Z,3.40
2017-10-22T19:28:09.969Z,4.03
2017-10-22T19:30:36.165Z,4.22
2017-10-22T19:33:02.363Z,3.95
2017-10-22T19:35:29.271Z,3.20
2017-10-22T19:37:55.429Z,3.72
2017-10-22T19:40:21.538Z,3.50
2017-10-22T19:42:47.724Z,3.95
2017-10-22T19:45:13.859Z,3.97
2017-10-22T19:47:39.964Z,4.20
2017-10-22T19:50:06.796Z,3.78
2017-10-22T19:52:32.933Z,3.33
2017-10-22T19:54:59.072Z,3.95
2017-10-22T19:57:25.196Z,3.00
2017-10-22T19:59:52.156Z,3.05
2017-10-22T20:02:18.253Z,3.00
2017-10-22T20:04:44.460Z,3.83
2017-10-22T20:07:10.632Z,3.80
2017-10-22T20:09:36.744Z,4.00
2017-10-22T20:12:04.510Z,3.12
2017-10-22T20:14:30.611Z,3.50
2017-10-22T20:16:56.713Z,3.28
2017-10-22T20:19:22.803Z,3.05
2017-10-22T20:21:48.941Z,3.25
2017-10-22T20:24:15.139Z,3.50
2017-10-22T20:26:41.383Z,3.42
2017-10-22T20:29:07.581Z,2.83
2017-10-22T20:31:33.688Z,4.03
2017-10-22T20:34:00.577Z,3.33
2017-10-22T20:36:26.769Z,4.35
2017-10-22T20:38:52.953Z,3.80
2017-10-22T20:41:19.072Z,3.37
2017-10-22T20:43:45.281Z,3.78
2017-10-22T20:46:11.430Z,5.07
2017-10-22T20:48:37.534Z,4.60
2017-10-22T20:51:03.627Z,4.80
2017-10-22T20:53:29.736Z,4.20
2017-10-22T20:55:55.832Z,4.47
2017-10-22T20:58:22.711Z,3.85
2017-10-22T21:00:48.846Z,3.80
2017-10-22T21:03:14.985Z,4.78
2017-10-22T21:05:41.860Z,6.00
2017-10-22T21:08:07.976Z,4.25
2017-10-22T21:10:34.137Z,3.75
2017-10-22T21:13:00.990Z,4.28
2017-10-22T21:15:27.904Z,5.05
2017-10-22T21:17:56.137Z,3.47
2017-10-22T21:20:23.006Z,3.92
2017-10-22T21:22:49.114Z,3.30
2017-10-22T21:25:15.210Z,3.80
2017-10-22T21:27:41.432Z,3.00
2017-10-22T21:30:08.285Z,2.95
2017-10-22T21:32:35.225Z,3.12
2017-10-22T21:35:02.129Z,3.47
2017-10-22T21:37:28.290Z,2.80
2017-10-22T21:39:54.425Z,2.92
2017-10-22T21:42:20.541Z,3.15
2017-10-22T21:44:46.677Z,3.70
2017-10-22T21:47:12.774Z,2.78
2017-10-22T21:49:38.884Z,3.12
2017-10-22T21:52:05.013Z,3.05
2017-10-22T21:54:31.151Z,2.83
2017-10-22T21:56:57.292Z,3.67
2017-10-22T21:59:23.409Z,3.70
2017-10-22T22:01:49.517Z,3.10
2017-10-22T22:04:15.627Z,4.03
2017-10-22T22:06:41.724Z,3.33
2017-10-22T22:09:07.865Z,3.33
2017-10-22T22:11:33.961Z,3.35
2017-10-22T22:14:00.806Z,3.30
2017-10-22T22:16:27.637Z,3.37
2017-10-22T22:18:53.745Z,3.12
2017-10-22T22:21:19.839Z,3.10
2017-10-22T22:23:46.678Z,2.95
2017-10-22T22:26:12.913Z,3.00
2017-10-22T22:28:39.821Z,3.55
2017-10-22T22:31:05.918Z,3.12
2017-10-22T22:33:32.016Z,3.50
2017-10-22T22:35:58.176Z,3.67
2017-10-22T22:38:24.280Z,3.20
2017-10-22T22:40:50.405Z,3.20
2017-10-22T22:43:16.573Z,3.30
2017-10-22T22:45:42.680Z,3.20
2017-10-22T22:48:08.769Z,2.90
2017-10-22T22:50:34.869Z,2.70
2017-10-22T22:53:00.956Z,2.80
2017-10-22T22:55:27.117Z,2.90
2017-10-22T22:57:53.235Z,3.20
2017-10-22T23:00:20.122Z,3.30
2017-10-22T23:02:46.235Z,2.85
2017-10-22T23:05:13.087Z,2.90
2017-10-22T23:07:39.925Z,3.85
2017-10-22T23:10:06.024Z,3.45
2017-10-22T23:12:32.121Z,3.55
2017-10-22T23:14:58.292Z,2.75
2017-10-22T23:17:24.383Z,2.90
2017-10-22T23:19:51.225Z,2.92
2017-10-22T23:22:18.071Z,2.60
2017-10-22T23:24:44.162Z,2.85
2017-10-22T23:27:10.261Z,2.85
2017-10-22T23:29:37.264Z,2.53
2017-10-22T23:32:04.098Z,2.78
2017-10-22T23:34:30.196Z,3.67
2017-10-22T23:36:56.331Z,2.80
2017-10-22T23:39:22.440Z,2.80
2017-10-22T23:41:48.532Z,2.58
2017-10-22T23:44:14.621Z,2.55
2017-10-22T23:46:40.724Z,2.85
2017-10-22T23:49:06.830Z,2.33
2017-10-22T23:51:33.663Z,2.95
2017-10-22T23:53:59.760Z,2.75
2017-10-22T23:56:25.861Z,3.15
2017-10-22T23:58:52.719Z,2.75
